sensor_id;sensor_type;location;lat;lon;timestamp;pressure;altitude;pressure_sealevel;temperature;humidity
74627;BME280;63132;52.268;5.192;2022-11-27T00:00:21;102332.84;;;5.32;100.00
74627;BME280;63132;52.268;5.192;2022-11-27T00:02:47;102323.25;;;5.17;99.39
74627;BME280;63132;52.268;5.192;2022-11-27T00:05:12;102324.59;;;5.02;100.00
74627;BME280;63132;52.268;5.192;2022-11-27T00:07:38;102311.50;;;5.08;100.00
74627;BME280;63132;52.268;5.192;2022-11-27T00:10:04;102318.59;;;5.09;99.65
74627;BME280;63132;52.268;5.192;2022-11-27T00:12:30;102309.41;;;5.05;99.85
74627;BME280;63132;52.268;5.192;2022-11-27T00:14:55;102302.16;;;4.91;100.00
74627;BME280;63132;52.268;5.192;2022-11-27T00:17:21;102297.69;;;4.87;100.00
74627;BME280;63132;52.268;5.192;2022-11-27T00:19:46;102295.75;;;4.87;100.00
74627;BME280;63132;52.268;5.192;2022-11-27T00:22:11;102286.34;;;4.97;100.00
74627;BME280;63132;52.268;5.192;2022-11-27T00:24:37;102285.94;;;4.78;100.00
74627;BME280;63132;52.268;5.192;2022-11-27T00:27:02;102293.94;;;4.91;100.00
74627;BME280;63132;52.268;5.192;2022-11-27T00:29:28;102280.13;;;4.79;100.00
74627;BME280;63132;52.268;5.192;2022-11-27T00:31:54;102277.47;;;4.91;100.00
74627;BME280;63132;52.268;5.192;2022-11-27T00:34:20;102285.75;;;4.83;100.00
74627;BME280;63132;52.268;5.192;2022-11-27T00:36:46;102278.00;;;4.76;100.00
74627;BME280;63132;52.268;5.192;2022-11-27T00:39:12;102284.09;;;4.90;100.00
74627;BME280;63132;52.268;5.192;2022-11-27T00:41:37;102275.44;;;4.80;100.00
74627;BME280;63132;52.268;5.192;2022-11-27T00:44:04;102279.06;;;5.01;100.00
74627;BME280;63132;52.268;5.192;2022-11-27T00:46:31;102282.69;;;4.84;100.00
74627;BME280;63132;52.268;5.192;2022-11-27T00:48:59;102272.19;;;4.86;100.00
74627;BME280;63132;52.268;5.192;2022-11-27T00:51:25;102273.03;;;4.78;100.00
74627;BME280;63132;52.268;5.192;2022-11-27T00:53:52;102271.81;;;4.96;100.00
74627;BME280;63132;52.268;5.192;2022-11-27T00:56:20;102265.72;;;4.82;100.00
74627;BME280;63132;52.268;5.192;2022-11-27T00:58:46;102267.19;;;4.80;100.00
74627;BME280;63132;52.268;5.192;2022-11-27T01:01:22;102262.00;;;4.87;100.00
74627;BME280;63132;52.268;5.192;2022-11-27T01:03:48;102258.78;;;4.85;100.00
74627;BME280;63132;52.268;5.192;2022-11-27T01:06:14;102266.97;;;4.93;100.00
74627;BME280;63132;52.268;5.192;2022-11-27T01:08:40;102257.19;;;5.13;99.47
74627;BME280;63132;52.268;5.192;2022-11-27T01:11:06;102266.59;;;5.04;99.47
74627;BME280;63132;52.268;5.192;2022-11-27T01:13:34;102247.22;;;5.09;99.00
74627;BME280;63132;52.268;5.192;2022-11-27T01:16:02;102245.88;;;5.15;99.57
74627;BME280;63132;52.268;5.192;2022-11-27T01:18:28;102240.47;;;5.27;98.96
74627;BME280;63132;52.268;5.192;2022-11-27T01:20:54;102236.88;;;5.06;99.07
74627;BME280;63132;52.268;5.192;2022-11-27T01:23:21;102241.72;;;5.09;99.11
74627;BME280;63132;52.268;5.192;2022-11-27T01:25:47;102239.13;;;5.33;97.53
74627;BME280;63132;52.268;5.192;2022-11-27T01:28:13;102225.81;;;5.23;97.91
74627;BME280;63132;52.268;5.192;2022-11-27T01:30:39;102217.16;;;5.33;97.54
74627;BME280;63132;52.268;5.192;2022-11-27T01:33:05;102219.81;;;5.21;97.92
74627;BME280;63132;52.268;5.192;2022-11-27T01:35:31;102203.16;;;5.26;97.68
74627;BME280;63132;52.268;5.192;2022-11-27T01:37:56;102203.88;;;5.35;97.38
74627;BME280;63132;52.268;5.192;2022-11-27T01:40:22;102189.88;;;5.49;96.30
74627;BME280;63132;52.268;5.192;2022-11-27T01:42:47;102189.34;;;5.55;95.87
74627;BME280;63132;52.268;5.192;2022-11-27T01:45:15;102186.50;;;5.52;95.84
74627;BME280;63132;52.268;5.192;2022-11-27T01:47:48;102190.97;;;5.56;95.43
74627;BME280;63132;52.268;5.192;2022-11-27T01:50:22;102178.44;;;5.26;96.60
74627;BME280;63132;52.268;5.192;2022-11-27T01:52:51;102170.28;;;5.38;96.76
74627;BME280;63132;52.268;5.192;2022-11-27T01:55:45;102161.09;;;5.34;96.52
74627;BME280;63132;52.268;5.192;2022-11-27T01:58:15;102160.16;;;5.30;96.23
74627;BME280;63132;52.268;5.192;2022-11-27T02:00:42;102156.63;;;5.30;95.94
74627;BME280;63132;52.268;5.192;2022-11-27T02:03:08;102162.28;;;5.45;95.57
74627;BME280;63132;52.268;5.192;2022-11-27T02:05:33;102171.41;;;5.37;95.37
74627;BME280;63132;52.268;5.192;2022-11-27T02:08:02;102168.59;;;5.46;95.11
74627;BME280;63132;52.268;5.192;2022-11-27T02:10:44;102153.78;;;5.17;96.29
74627;BME280;63132;52.268;5.192;2022-11-27T02:18:36;102130.47;;;5.03;96.68
74627;BME280;63132;52.268;5.192;2022-11-27T02:21:35;102128.94;;;4.93;97.45
74627;BME280;63132;52.268;5.192;2022-11-27T02:24:36;102136.94;;;4.98;97.44
74627;BME280;63132;52.268;5.192;2022-11-27T02:29:53;102137.69;;;4.86;96.89
74627;BME280;63132;52.268;5.192;2022-11-27T02:35:21;102148.38;;;5.09;96.00
74627;BME280;63132;52.268;5.192;2022-11-27T02:37:58;102151.84;;;5.18;96.00
74627;BME280;63132;52.268;5.192;2022-11-27T02:40:29;102156.94;;;5.07;96.38
74627;BME280;63132;52.268;5.192;2022-11-27T02:43:00;102155.38;;;5.18;95.65
74627;BME280;63132;52.268;5.192;2022-11-27T02:45:32;102145.28;;;5.10;96.26
74627;BME280;63132;52.268;5.192;2022-11-27T02:47:59;102150.88;;;5.14;96.10
74627;BME280;63132;52.268;5.192;2022-11-27T02:50:25;102143.25;;;5.40;94.63
74627;BME280;63132;52.268;5.192;2022-11-27T02:52:55;102141.47;;;5.44;94.25
74627;BME280;63132;52.268;5.192;2022-11-27T02:55:26;102148.31;;;5.38;94.46
74627;BME280;63132;52.268;5.192;2022-11-27T02:57:55;102140.16;;;5.42;94.08
74627;BME280;63132;52.268;5.192;2022-11-27T03:00:21;102133.88;;;5.41;94.00
74627;BME280;63132;52.268;5.192;2022-11-27T03:02:57;102135.56;;;5.34;94.26
74627;BME280;63132;52.268;5.192;2022-11-27T03:05:27;102141.19;;;5.37;93.92
74627;BME280;63132;52.268;5.192;2022-11-27T03:08:03;102134.22;;;5.40;94.39
74627;BME280;63132;52.268;5.192;2022-11-27T03:10:33;102133.22;;;5.44;93.78
74627;BME280;63132;52.268;5.192;2022-11-27T03:13:01;102136.09;;;5.27;95.19
74627;BME280;63132;52.268;5.192;2022-11-27T03:15:36;102130.41;;;5.32;94.86
74627;BME280;63132;52.268;5.192;2022-11-27T03:18:17;102138.19;;;5.30;94.67
74627;BME280;63132;52.268;5.192;2022-11-27T03:20:46;102121.28;;;5.40;94.16
74627;BME280;63132;52.268;5.192;2022-11-27T03:23:13;102132.97;;;5.16;95.64
74627;BME280;63132;52.268;5.192;2022-11-27T03:25:38;102125.78;;;5.24;95.16
74627;BME280;63132;52.268;5.192;2022-11-27T03:28:07;102125.91;;;5.48;94.06
74627;BME280;63132;52.268;5.192;2022-11-27T03:30:34;102132.00;;;5.33;93.64
74627;BME280;63132;52.268;5.192;2022-11-27T03:33:00;102120.31;;;5.24;95.06
74627;BME280;63132;52.268;5.192;2022-11-27T03:35:26;102112.88;;;5.24;94.59
74627;BME280;63132;52.268;5.192;2022-11-27T03:37:52;102110.84;;;5.34;93.87
74627;BME280;63132;52.268;5.192;2022-11-27T03:40:19;102106.16;;;5.34;92.80
74627;BME280;63132;52.268;5.192;2022-11-27T03:43:02;102097.44;;;5.32;93.07
74627;BME280;63132;52.268;5.192;2022-11-27T03:48:23;102083.81;;;5.23;93.61
74627;BME280;63132;52.268;5.192;2022-11-27T03:51:19;102102.00;;;5.28;93.44
74627;BME280;63132;52.268;5.192;2022-11-27T03:54:00;102102.47;;;5.30;93.17
74627;BME280;63132;52.268;5.192;2022-11-27T03:56:37;102098.88;;;5.17;93.39
74627;BME280;63132;52.268;5.192;2022-11-27T04:01:35;102088.22;;;5.16;93.92
74627;BME280;63132;52.268;5.192;2022-11-27T04:04:00;102087.94;;;5.30;93.23
74627;BME280;63132;52.268;5.192;2022-11-27T04:06:26;102096.13;;;5.17;93.30
74627;BME280;63132;52.268;5.192;2022-11-27T04:08:51;102101.53;;;5.26;92.56
74627;BME280;63132;52.268;5.192;2022-11-27T04:11:17;102094.78;;;5.23;92.59
74627;BME280;63132;52.268;5.192;2022-11-27T04:13:42;102100.72;;;5.25;92.62
74627;BME280;63132;52.268;5.192;2022-11-27T04:16:08;102107.97;;;5.30;91.76
74627;BME280;63132;52.268;5.192;2022-11-27T04:18:33;102107.56;;;5.40;91.65
74627;BME280;63132;52.268;5.192;2022-11-27T04:20:58;102098.53;;;5.19;92.85
74627;BME280;63132;52.268;5.192;2022-11-27T04:23:24;102098.38;;;5.36;91.86
74627;BME280;63132;52.268;5.192;2022-11-27T04:25:49;102104.09;;;5.31;91.95
74627;BME280;63132;52.268;5.192;2022-11-27T04:28:15;102101.16;;;5.15;92.64
74627;BME280;63132;52.268;5.192;2022-11-27T04:30:44;102085.81;;;5.14;92.52
74627;BME280;63132;52.268;5.192;2022-11-27T04:33:09;102077.63;;;5.26;92.50
74627;BME280;63132;52.268;5.192;2022-11-27T04:35:35;102071.31;;;5.26;92.88
74627;BME280;63132;52.268;5.192;2022-11-27T04:38:00;102060.00;;;5.27;92.06
74627;BME280;63132;52.268;5.192;2022-11-27T04:40:26;102071.66;;;5.24;91.84
74627;BME280;63132;52.268;5.192;2022-11-27T04:42:52;102064.34;;;5.28;91.69
74627;BME280;63132;52.268;5.192;2022-11-27T04:45:17;102078.47;;;5.39;91.86
74627;BME280;63132;52.268;5.192;2022-11-27T04:47:43;102066.38;;;5.19;91.89
74627;BME280;63132;52.268;5.192;2022-11-27T04:50:08;102068.06;;;5.12;92.61
74627;BME280;63132;52.268;5.192;2022-11-27T04:52:34;102057.59;;;5.05;92.57
74627;BME280;63132;52.268;5.192;2022-11-27T04:55:00;102060.97;;;5.11;92.31
74627;BME280;63132;52.268;5.192;2022-11-27T04:57:25;102061.41;;;5.13;92.23
74627;BME280;63132;52.268;5.192;2022-11-27T04:59:50;102046.16;;;5.24;91.78
74627;BME280;63132;52.268;5.192;2022-11-27T05:02:16;102058.00;;;5.49;90.64
74627;BME280;63132;52.268;5.192;2022-11-27T05:04:41;102041.31;;;5.21;91.32
74627;BME280;63132;52.268;5.192;2022-11-27T05:07:07;102039.72;;;5.20;91.44
74627;BME280;63132;52.268;5.192;2022-11-27T05:09:32;102043.75;;;5.22;91.33
74627;BME280;63132;52.268;5.192;2022-11-27T05:11:58;102035.50;;;5.22;90.81
74627;BME280;63132;52.268;5.192;2022-11-27T05:14:23;102031.22;;;5.13;91.29
74627;BME280;63132;52.268;5.192;2022-11-27T05:16:55;102039.16;;;5.26;90.85
74627;BME280;63132;52.268;5.192;2022-11-27T05:19:23;102035.63;;;5.26;91.04
74627;BME280;63132;52.268;5.192;2022-11-27T05:21:49;102038.91;;;5.19;90.49
74627;BME280;63132;52.268;5.192;2022-11-27T05:24:16;102027.63;;;5.33;90.29
74627;BME280;63132;52.268;5.192;2022-11-27T05:26:42;102037.47;;;5.34;90.29
74627;BME280;63132;52.268;5.192;2022-11-27T05:29:08;102038.97;;;5.32;90.51
74627;BME280;63132;52.268;5.192;2022-11-27T05:31:34;102030.84;;;5.35;89.73
74627;BME280;63132;52.268;5.192;2022-11-27T05:34:00;102015.09;;;5.44;89.27
74627;BME280;63132;52.268;5.192;2022-11-27T05:36:25;102019.16;;;5.26;90.15
74627;BME280;63132;52.268;5.192;2022-11-27T05:38:51;102019.66;;;5.40;89.16
74627;BME280;63132;52.268;5.192;2022-11-27T05:41:16;102025.28;;;5.44;89.53
74627;BME280;63132;52.268;5.192;2022-11-27T05:43:42;102018.00;;;5.27;91.29
74627;BME280;63132;52.268;5.192;2022-11-27T05:46:10;102020.00;;;5.39;90.37
74627;BME280;63132;52.268;5.192;2022-11-27T05:48:37;102021.47;;;5.36;90.04
74627;BME280;63132;52.268;5.192;2022-11-27T05:51:03;102016.41;;;5.26;90.90
74627;BME280;63132;52.268;5.192;2022-11-27T05:53:29;102011.19;;;5.12;91.43
74627;BME280;63132;52.268;5.192;2022-11-27T05:56:03;102004.25;;;5.15;91.97
74627;BME280;63132;52.268;5.192;2022-11-27T05:58:28;101999.16;;;5.05;92.54
74627;BME280;63132;52.268;5.192;2022-11-27T06:00:54;102001.75;;;5.22;93.85
74627;BME280;63132;52.268;5.192;2022-11-27T06:03:19;102003.91;;;5.16;92.43
74627;BME280;63132;52.268;5.192;2022-11-27T06:05:45;101998.25;;;5.00;94.69
74627;BME280;63132;52.268;5.192;2022-11-27T06:08:10;101997.50;;;4.91;94.81
74627;BME280;63132;52.268;5.192;2022-11-27T06:10:37;102006.41;;;4.88;96.14
74627;BME280;63132;52.268;5.192;2022-11-27T06:13:03;102004.00;;;5.08;94.37
74627;BME280;63132;52.268;5.192;2022-11-27T06:15:28;102000.38;;;4.95;94.95
74627;BME280;63132;52.268;5.192;2022-11-27T06:17:53;101998.91;;;4.77;96.51
74627;BME280;63132;52.268;5.192;2022-11-27T06:20:19;102000.94;;;4.88;96.59
74627;BME280;63132;52.268;5.192;2022-11-27T06:22:44;101995.44;;;4.88;96.59
74627;BME280;63132;52.268;5.192;2022-11-27T06:25:10;101992.50;;;4.72;97.57
74627;BME280;63132;52.268;5.192;2022-11-27T06:27:35;101988.19;;;4.84;97.73
74627;BME280;63132;52.268;5.192;2022-11-27T06:30:02;101986.88;;;4.69;97.69
74627;BME280;63132;52.268;5.192;2022-11-27T06:32:28;101993.69;;;4.84;96.89
74627;BME280;63132;52.268;5.192;2022-11-27T06:34:53;101981.13;;;5.16;95.67
74627;BME280;63132;52.268;5.192;2022-11-27T06:37:18;101987.91;;;4.97;96.36
74627;BME280;63132;52.268;5.192;2022-11-27T06:39:44;101984.50;;;5.00;95.84
74627;BME280;63132;52.268;5.192;2022-11-27T06:42:09;101984.53;;;4.80;97.15
74627;BME280;63132;52.268;5.192;2022-11-27T06:44:34;101984.19;;;4.81;96.54
74627;BME280;63132;52.268;5.192;2022-11-27T06:47:00;101981.00;;;4.79;96.77
74627;BME280;63132;52.268;5.192;2022-11-27T06:49:26;101977.56;;;4.82;97.23
74627;BME280;63132;52.268;5.192;2022-11-27T06:51:51;101973.97;;;4.69;97.81
74627;BME280;63132;52.268;5.192;2022-11-27T06:54:17;101971.88;;;4.87;97.51
74627;BME280;63132;52.268;5.192;2022-11-27T06:56:42;101974.63;;;4.87;98.32
74627;BME280;63132;52.268;5.192;2022-11-27T06:59:11;101962.22;;;5.02;97.31
74627;BME280;63132;52.268;5.192;2022-11-27T07:01:40;101953.81;;;4.65;99.03
74627;BME280;63132;52.268;5.192;2022-11-27T07:04:09;101959.50;;;4.81;98.00
74627;BME280;63132;52.268;5.192;2022-11-27T07:06:34;101945.97;;;4.76;99.58
74627;BME280;63132;52.268;5.192;2022-11-27T07:09:00;101942.56;;;4.79;99.28
74627;BME280;63132;52.268;5.192;2022-11-27T07:11:27;101941.44;;;4.80;99.47
74627;BME280;63132;52.268;5.192;2022-11-27T07:13:56;101930.81;;;4.91;99.32
74627;BME280;63132;52.268;5.192;2022-11-27T07:16:22;101943.03;;;4.81;98.87
74627;BME280;63132;52.268;5.192;2022-11-27T07:18:50;101937.53;;;4.81;99.44
74627;BME280;63132;52.268;5.192;2022-11-27T07:21:16;101937.84;;;5.00;100.00
74627;BME280;63132;52.268;5.192;2022-11-27T07:23:43;101930.44;;;4.80;99.87
74627;BME280;63132;52.268;5.192;2022-11-27T07:26:13;101926.09;;;4.79;99.93
74627;BME280;63132;52.268;5.192;2022-11-27T07:28:39;101922.38;;;4.96;99.99
74627;BME280;63132;52.268;5.192;2022-11-27T07:31:07;101917.75;;;5.09;98.72
74627;BME280;63132;52.268;5.192;2022-11-27T07:33:33;101909.59;;;5.00;99.51
74627;BME280;63132;52.268;5.192;2022-11-27T07:38:32;101914.06;;;4.71;100.00
74627;BME280;63132;52.268;5.192;2022-11-27T07:40:59;101919.94;;;4.82;99.30
74627;BME280;63132;52.268;5.192;2022-11-27T07:43:25;101910.41;;;5.00;99.75
74627;BME280;63132;52.268;5.192;2022-11-27T07:45:51;101921.22;;;4.85;99.76
74627;BME280;63132;52.268;5.192;2022-11-27T07:48:16;101914.03;;;4.92;99.80
74627;BME280;63132;52.268;5.192;2022-11-27T07:50:41;101916.31;;;4.90;100.00
74627;BME280;63132;52.268;5.192;2022-11-27T07:53:07;101914.06;;;4.71;100.00
74627;BME280;63132;52.268;5.192;2022-11-27T07:55:32;101906.44;;;4.77;100.00
74627;BME280;63132;52.268;5.192;2022-11-27T07:57:58;101912.28;;;4.88;100.00
74627;BME280;63132;52.268;5.192;2022-11-27T08:00:23;101914.69;;;4.89;100.00
74627;BME280;63132;52.268;5.192;2022-11-27T08:02:48;101911.28;;;4.92;100.00
74627;BME280;63132;52.268;5.192;2022-11-27T08:05:14;101901.16;;;5.17;99.69
74627;BME280;63132;52.268;5.192;2022-11-27T08:07:39;101905.72;;;5.13;98.97
74627;BME280;63132;52.268;5.192;2022-11-27T08:10:06;101903.13;;;4.84;99.68
74627;BME280;63132;52.268;5.192;2022-11-27T08:12:31;101902.22;;;4.80;100.00
74627;BME280;63132;52.268;5.192;2022-11-27T08:14:57;101893.22;;;5.04;100.00
74627;BME280;63132;52.268;5.192;2022-11-27T08:17:22;101888.16;;;4.81;100.00
74627;BME280;63132;52.268;5.192;2022-11-27T08:19:48;101883.84;;;4.92;100.00
74627;BME280;63132;52.268;5.192;2022-11-27T08:22:16;101883.03;;;4.92;100.00
74627;BME280;63132;52.268;5.192;2022-11-27T08:24:44;101886.97;;;5.15;100.00
74627;BME280;63132;52.268;5.192;2022-11-27T08:27:10;101892.88;;;4.93;100.00
74627;BME280;63132;52.268;5.192;2022-11-27T08:29:36;101876.66;;;5.00;100.00
74627;BME280;63132;52.268;5.192;2022-11-27T08:32:02;101883.59;;;4.97;100.00
74627;BME280;63132;52.268;5.192;2022-11-27T08:34:28;101885.09;;;4.95;100.00
74627;BME280;63132;52.268;5.192;2022-11-27T08:36:53;101883.84;;;5.05;100.00
74627;BME280;63132;52.268;5.192;2022-11-27T08:39:19;101890.28;;;5.09;99.72
74627;BME280;63132;52.268;5.192;2022-11-27T08:41:44;101885.22;;;4.98;99.81
74627;BME280;63132;52.268;5.192;2022-11-27T08:44:10;101888.44;;;5.00;100.00
74627;BME280;63132;52.268;5.192;2022-11-27T08:46:35;101887.16;;;4.98;100.00
74627;BME280;63132;52.268;5.192;2022-11-27T08:49:01;101888.19;;;4.93;100.00
74627;BME280;63132;52.268;5.192;2022-11-27T08:51:26;101890.50;;;5.04;100.00
74627;BME280;63132;52.268;5.192;2022-11-27T08:53:52;101890.28;;;5.09;100.00
74627;BME280;63132;52.268;5.192;2022-11-27T08:56:21;101895.22;;;5.15;99.61
74627;BME280;63132;52.268;5.192;2022-11-27T08:58:47;101902.28;;;5.04;100.00
74627;BME280;63132;52.268;5.192;2022-11-27T09:01:17;101898.13;;;4.98;100.00
74627;BME280;63132;52.268;5.192;2022-11-27T09:03:43;101900.25;;;5.25;100.00
74627;BME280;63132;52.268;5.192;2022-11-27T09:06:11;101906.47;;;5.47;100.00
74627;BME280;63132;52.268;5.192;2022-11-27T09:08:38;101899.69;;;5.32;99.44
74627;BME280;63132;52.268;5.192;2022-11-27T09:11:05;101896.25;;;5.35;100.00
74627;BME280;63132;52.268;5.192;2022-11-27T09:13:31;101890.16;;;5.05;100.00
74627;BME280;63132;52.268;5.192;2022-11-27T09:15:57;101894.69;;;5.46;100.00
74627;BME280;63132;52.268;5.192;2022-11-27T09:18:23;101891.47;;;5.32;100.00
74627;BME280;63132;52.268;5.192;2022-11-27T09:21:04;101887.81;;;5.40;100.00
74627;BME280;63132;52.268;5.192;2022-11-27T09:23:30;101881.59;;;5.43;100.00
74627;BME280;63132;52.268;5.192;2022-11-27T09:26:00;101885.16;;;5.56;98.96
74627;BME280;63132;52.268;5.192;2022-11-27T09:28:26;101885.06;;;5.52;99.74
74627;BME280;63132;52.268;5.192;2022-11-27T09:30:55;101877.38;;;5.58;99.12
74627;BME280;63132;52.268;5.192;2022-11-27T09:33:26;101875.88;;;5.85;98.96
74627;BME280;63132;52.268;5.192;2022-11-27T09:35:52;101874.97;;;5.69;98.37
74627;BME280;63132;52.268;5.192;2022-11-27T09:38:18;101872.47;;;5.64;99.93
74627;BME280;63132;52.268;5.192;2022-11-27T09:40:51;101867.53;;;5.94;98.41
74627;BME280;63132;52.268;5.192;2022-11-27T09:43:25;101860.88;;;5.82;98.24
74627;BME280;63132;52.268;5.192;2022-11-27T09:45:55;101865.59;;;5.82;97.86
74627;BME280;63132;52.268;5.192;2022-11-27T09:48:33;101863.28;;;5.72;100.00
74627;BME280;63132;52.268;5.192;2022-11-27T09:51:01;101854.56;;;6.06;98.52
74627;BME280;63132;52.268;5.192;2022-11-27T09:53:38;101853.19;;;6.00;97.23
74627;BME280;63132;52.268;5.192;2022-11-27T09:56:10;101851.94;;;5.98;98.04
74627;BME280;63132;52.268;5.192;2022-11-27T10:01:16;101845.75;;;6.01;98.94
74627;BME280;63132;52.268;5.192;2022-11-27T10:03:43;101844.94;;;5.88;99.47
74627;BME280;63132;52.268;5.192;2022-11-27T10:06:30;101837.75;;;5.83;98.60
74627;BME280;63132;52.268;5.192;2022-11-27T10:11:44;101845.41;;;5.78;99.32
74627;BME280;63132;52.268;5.192;2022-11-27T10:17:04;101837.72;;;5.96;100.00
74627;BME280;63132;52.268;5.192;2022-11-27T10:19:50;101834.75;;;6.01;99.12
74627;BME280;63132;52.268;5.192;2022-11-27T10:22:39;101834.88;;;6.04;98.65
74627;BME280;63132;52.268;5.192;2022-11-27T10:25:16;101827.84;;;6.07;99.65
74627;BME280;63132;52.268;5.192;2022-11-27T10:31:18;101833.03;;;5.84;99.75
74627;BME280;63132;52.268;5.192;2022-11-27T10:33:50;101821.66;;;6.38;99.08
74627;BME280;63132;52.268;5.192;2022-11-27T10:36:29;101815.19;;;6.18;97.56
74627;BME280;63132;52.268;5.192;2022-11-27T10:38:56;101809.25;;;6.16;98.49
74627;BME280;63132;52.268;5.192;2022-11-27T10:41:32;101801.16;;;6.07;98.47
74627;BME280;63132;52.268;5.192;2022-11-27T10:44:08;101798.09;;;6.25;98.08
74627;BME280;63132;52.268;5.192;2022-11-27T10:46:39;101806.75;;;6.39;97.48
74627;BME280;63132;52.268;5.192;2022-11-27T10:49:05;101802.53;;;6.57;97.14
74627;BME280;63132;52.268;5.192;2022-11-27T10:51:33;101785.53;;;6.39;96.63
74627;BME280;63132;52.268;5.192;2022-11-27T10:54:01;101788.31;;;6.55;97.45
74627;BME280;63132;52.268;5.192;2022-11-27T10:59:18;101780.59;;;6.45;96.91
74627;BME280;63132;52.268;5.192;2022-11-27T11:01:48;101785.41;;;6.48;97.49
74627;BME280;63132;52.268;5.192;2022-11-27T11:04:18;101787.50;;;6.39;97.27
74627;BME280;63132;52.268;5.192;2022-11-27T11:06:47;101777.78;;;6.57;96.88
74627;BME280;63132;52.268;5.192;2022-11-27T11:11:41;101769.91;;;6.28;98.70
74627;BME280;63132;52.268;5.192;2022-11-27T11:14:16;101757.25;;;6.55;97.80
74627;BME280;63132;52.268;5.192;2022-11-27T11:16:43;101764.44;;;6.44;98.58
74627;BME280;63132;52.268;5.192;2022-11-27T11:19:32;101749.63;;;6.48;98.55
74627;BME280;63132;52.268;5.192;2022-11-27T11:21:59;101756.81;;;6.69;98.56
74627;BME280;63132;52.268;5.192;2022-11-27T11:24:33;101744.22;;;6.68;97.38
74627;BME280;63132;52.268;5.192;2022-11-27T11:27:03;101741.38;;;6.80;96.67
74627;BME280;63132;52.268;5.192;2022-11-27T11:32:25;101713.75;;;6.76;96.55
74627;BME280;63132;52.268;5.192;2022-11-27T11:34:58;101708.63;;;6.75;97.46
74627;BME280;63132;52.268;5.192;2022-11-27T11:37:28;101705.59;;;6.96;96.71
74627;BME280;63132;52.268;5.192;2022-11-27T11:42:47;101707.41;;;7.07;96.69
74627;BME280;63132;52.268;5.192;2022-11-27T11:45:19;101699.72;;;7.32;95.95
74627;BME280;63132;52.268;5.192;2022-11-27T11:47:50;101699.66;;;7.48;95.90
74627;BME280;63132;52.268;5.192;2022-11-27T11:53:07;101696.47;;;7.46;93.34
74627;BME280;63132;52.268;5.192;2022-11-27T11:55:43;101693.94;;;7.57;92.59
74627;BME280;63132;52.268;5.192;2022-11-27T12:09:42;101669.69;;;7.27;93.78
74627;BME280;63132;52.268;5.192;2022-11-27T12:17:41;101660.69;;;7.11;94.97
74627;BME280;63132;52.268;5.192;2022-11-27T12:20:17;101644.38;;;7.21;95.71
74627;BME280;63132;52.268;5.192;2022-11-27T12:23:02;101638.59;;;7.27;95.24
74627;BME280;63132;52.268;5.192;2022-11-27T12:25:40;101626.19;;;7.17;94.28
74627;BME280;63132;52.268;5.192;2022-11-27T12:31:05;101615.25;;;7.40;94.34
74627;BME280;63132;52.268;5.192;2022-11-27T12:34:10;101617.34;;;7.27;93.30
74627;BME280;63132;52.268;5.192;2022-11-27T12:39:25;101612.56;;;7.24;94.82
74627;BME280;63132;52.268;5.192;2022-11-27T12:45:21;101610.03;;;7.15;94.26
74627;BME280;63132;52.268;5.192;2022-11-27T12:48:04;101597.66;;;6.90;95.72
74627;BME280;63132;52.268;5.192;2022-11-27T12:50:43;101588.81;;;7.16;93.57
74627;BME280;63132;52.268;5.192;2022-11-27T12:58:44;101587.75;;;6.85;95.96
74627;BME280;63132;52.268;5.192;2022-11-27T13:01:18;101573.84;;;6.78;95.61
74627;BME280;63132;52.268;5.192;2022-11-27T13:04:09;101579.75;;;6.80;96.41
74627;BME280;63132;52.268;5.192;2022-11-27T13:09:23;101583.50;;;7.27;94.26
74627;BME280;63132;52.268;5.192;2022-11-27T13:11:50;101572.41;;;7.23;92.82
74627;BME280;63132;52.268;5.192;2022-11-27T13:14:19;101580.09;;;6.94;94.99
74627;BME280;63132;52.268;5.192;2022-11-27T13:16:58;101577.22;;;6.91;93.68
74627;BME280;63132;52.268;5.192;2022-11-27T13:19:34;101572.41;;;7.04;94.80
74627;BME280;63132;52.268;5.192;2022-11-27T13:22:08;101564.94;;;7.04;93.18
74627;BME280;63132;52.268;5.192;2022-11-27T13:24:36;101571.50;;;6.80;94.52
74627;BME280;63132;52.268;5.192;2022-11-27T13:27:09;101569.44;;;6.93;94.68
74627;BME280;63132;52.268;5.192;2022-11-27T13:29:45;101568.81;;;6.84;95.68
74627;BME280;63132;52.268;5.192;2022-11-27T13:32:20;101566.53;;;7.05;94.78
74627;BME280;63132;52.268;5.192;2022-11-27T13:34:48;101560.00;;;6.94;94.13
74627;BME280;63132;52.268;5.192;2022-11-27T13:37:29;101558.81;;;6.76;95.22
74627;BME280;63132;52.268;5.192;2022-11-27T13:42:43;101548.91;;;6.90;93.08
74627;BME280;63132;52.268;5.192;2022-11-27T13:45:22;101545.78;;;6.92;95.48
74627;BME280;63132;52.268;5.192;2022-11-27T13:47:49;101537.38;;;6.85;93.77
74627;BME280;63132;52.268;5.192;2022-11-27T13:50:18;101538.56;;;7.03;93.95
74627;BME280;63132;52.268;5.192;2022-11-27T13:52:53;101526.03;;;6.86;93.84
74627;BME280;63132;52.268;5.192;2022-11-27T13:55:23;101528.19;;;7.16;92.82
74627;BME280;63132;52.268;5.192;2022-11-27T13:57:51;101516.38;;;6.96;92.88
74627;BME280;63132;52.268;5.192;2022-11-27T14:00:17;101515.31;;;7.01;94.18
74627;BME280;63132;52.268;5.192;2022-11-27T14:02:48;101512.56;;;7.01;94.07
74627;BME280;63132;52.268;5.192;2022-11-27T14:05:18;101512.84;;;6.96;92.01
74627;BME280;63132;52.268;5.192;2022-11-27T14:07:51;101511.72;;;7.00;93.25
74627;BME280;63132;52.268;5.192;2022-11-27T14:10:21;101506.53;;;6.95;91.74
74627;BME280;63132;52.268;5.192;2022-11-27T14:12:53;101501.94;;;6.83;93.55
74627;BME280;63132;52.268;5.192;2022-11-27T14:15:25;101494.28;;;7.12;91.61
74627;BME280;63132;52.268;5.192;2022-11-27T14:18:02;101494.19;;;6.70;93.55
74627;BME280;63132;52.268;5.192;2022-11-27T14:20:30;101493.47;;;6.73;93.81
74627;BME280;63132;52.268;5.192;2022-11-27T14:22:58;101491.09;;;6.71;95.28
74627;BME280;63132;52.268;5.192;2022-11-27T14:30:47;101483.75;;;6.98;92.41
74627;BME280;63132;52.268;5.192;2022-11-27T14:33:31;101475.59;;;6.82;93.21